createdAt,value
2022-12-28T00:00:23.520Z,4.07
2022-12-28T00:06:26.547Z,4.43
2022-12-28T00:12:29.654Z,2.95
2022-12-28T00:18:34.819Z,2.97
2022-12-28T00:24:37.028Z,3.25
2022-12-28T00:30:39.241Z,3.30
2022-12-28T00:37:08.386Z,3.10
2022-12-28T00:43:05.080Z,2.00
2022-12-28T00:49:07.381Z,2.88
2022-12-28T00:55:09.695Z,2.75
2022-12-28T01:01:20.434Z,3.13
2022-12-28T01:07:22.641Z,3.75
2022-12-28T01:13:24.700Z,2.42
2022-12-28T01:19:26.899Z,2.37
2022-12-28T01:25:29.292Z,2.63
2022-12-28T01:31:31.613Z,2.78
2022-12-28T01:37:34.002Z,2.60
2022-12-28T01:43:44.143Z,2.42
2022-12-28T01:49:55.969Z,2.25
2022-12-28T01:55:58.122Z,3.50
2022-12-28T02:02:00.589Z,3.50
2022-12-28T02:14:29.814Z,3.88
2022-12-28T02:20:47.438Z,3.17
2022-12-28T02:27:08.544Z,2.70
2022-12-28T02:33:29.619Z,3.58
2022-12-28T02:39:42.220Z,2.45
2022-12-28T02:46:05.283Z,2.85
2022-12-28T02:52:45.006Z,11.43
2022-12-28T02:59:15.784Z,2.80
2022-12-28T03:06:05.719Z,3.70
2022-12-28T03:12:33.047Z,2.25
2022-12-28T03:18:58.504Z,2.03
2022-12-28T03:25:25.971Z,2.92
2022-12-28T03:31:29.484Z,3.75
2022-12-28T03:37:59.955Z,10.55
2022-12-28T03:44:10.815Z,3.65
2022-12-28T03:50:13.536Z,2.55
2022-12-28T03:56:19.816Z,6.53
2022-12-28T04:02:23.298Z,4.65
2022-12-28T04:08:25.995Z,3.38
2022-12-28T04:14:29.023Z,2.67
2022-12-28T04:20:31.400Z,8.95
2022-12-28T04:26:33.910Z,8.55
2022-12-28T04:38:40.078Z,3.08
2022-12-28T04:44:42.442Z,8.15
2022-12-28T04:50:44.632Z,3.17
2022-12-28T04:56:46.771Z,4.95
2022-12-28T05:02:48.945Z,5.75
2022-12-28T05:08:51.756Z,1.95
2022-12-28T05:14:54.028Z,3.10
2022-12-28T05:21:10.195Z,2.08
2022-12-28T05:27:12.347Z,6.70
2022-12-28T05:33:14.498Z,2.83
2022-12-28T05:39:16.830Z,2.85
2022-12-28T05:45:19.251Z,3.13
2022-12-28T05:51:24.427Z,4.20
2022-12-28T05:57:26.542Z,3.50
2022-12-28T06:03:28.737Z,3.85
2022-12-28T06:09:30.837Z,2.80
2022-12-28T06:15:33.060Z,2.58
2022-12-28T06:21:37.823Z,3.33
2022-12-28T06:27:43.064Z,10.75
2022-12-28T06:33:45.912Z,7.50
2022-12-28T06:39:48.171Z,19.02
2022-12-28T06:45:57.281Z,11.48
2022-12-28T06:51:59.450Z,4.35
2022-12-28T06:58:01.491Z,7.27
2022-12-28T07:04:06.605Z,4.37
2022-12-28T07:10:08.922Z,5.00
2022-12-28T07:16:21.593Z,4.07
2022-12-28T07:22:23.953Z,4.13
2022-12-28T07:28:26.048Z,6.93
2022-12-28T07:34:28.237Z,4.65
2022-12-28T07:40:30.447Z,3.15
2022-12-28T07:46:34.605Z,5.05
2022-12-28T07:52:37.628Z,6.30
2022-12-28T08:04:43.419Z,5.20
2022-12-28T08:10:47.151Z,3.90
2022-12-28T08:16:49.436Z,4.60
2022-12-28T08:22:51.559Z,4.18
2022-12-28T08:28:56.215Z,3.50
2022-12-28T08:34:58.469Z,3.88
2022-12-28T08:41:02.804Z,3.42
2022-12-28T08:47:05.239Z,4.93
2022-12-28T08:53:07.550Z,3.92
2022-12-28T08:59:11.288Z,4.10
2022-12-28T09:05:13.644Z,3.70
2022-12-28T09:11:16.018Z,4.43
2022-12-28T09:17:18.155Z,4.63
2022-12-28T09:23:20.424Z,6.37
2022-12-28T09:29:22.500Z,6.70
2022-12-28T09:35:24.685Z,8.10
2022-12-28T09:41:51.787Z,9.27
2022-12-28T09:48:00.346Z,4.55
2022-12-28T09:54:04.471Z,3.58
2022-12-28T10:00:17.474Z,3.03
2022-12-28T10:06:26.487Z,2.70
2022-12-28T10:12:30.170Z,2.95
2022-12-28T10:18:39.250Z,3.00
2022-12-28T10:24:42.404Z,2.53
2022-12-28T10:30:47.217Z,3.17
2022-12-28T10:36:50.740Z,3.80
2022-12-28T10:42:57.844Z,3.63
2022-12-28T10:49:02.824Z,4.25
2022-12-28T10:55:28.792Z,3.53
2022-12-28T11:01:31.122Z,2.38
2022-12-28T11:07:41.442Z,2.38
2022-12-28T11:13:47.198Z,1.33
2022-12-28T11:19:52.124Z,2.22
2022-12-28T11:25:54.240Z,2.05
2022-12-28T11:32:09.065Z,2.30
2022-12-28T11:38:31.847Z,2.28
2022-12-28T11:44:40.012Z,2.63
2022-12-28T11:50:50.456Z,2.08
2022-12-28T11:56:52.607Z,2.83
2022-12-28T12:02:57.349Z,2.37
2022-12-28T12:08:59.561Z,2.53
2022-12-28T12:15:10.973Z,2.77
2022-12-28T12:21:22.614Z,3.15
2022-12-28T12:27:36.916Z,2.67
2022-12-28T12:33:44.718Z,2.35
2022-12-28T12:39:59.310Z,2.45
2022-12-28T12:46:41.306Z,2.72
2022-12-28T12:53:20.893Z,5.07
2022-12-28T12:59:51.166Z,1.95
2022-12-28T13:05:55.881Z,2.92
2022-12-28T13:11:59.205Z,2.88
2022-12-28T13:18:42.966Z,3.40
2022-12-28T13:24:35.001Z,1.83
2022-12-28T13:30:38.647Z,2.90
2022-12-28T13:36:56.714Z,3.00
2022-12-28T13:43:18.135Z,2.15
2022-12-28T13:49:22.226Z,2.03
2022-12-28T13:55:29.689Z,1.90
2022-12-28T14:01:36.718Z,2.17
2022-12-28T14:07:38.947Z,2.45
2022-12-28T14:13:41.273Z,3.00
2022-12-28T14:19:43.746Z,2.13
2022-12-28T14:25:45.901Z,1.95
2022-12-28T14:31:47.999Z,3.53
2022-12-28T14:37:56.638Z,7.50
2022-12-28T14:44:01.218Z,2.90
2022-12-28T14:50:24.932Z,3.22
2022-12-28T14:56:34.345Z,3.42
2022-12-28T15:02:39.122Z,3.50
2022-12-28T15:08:41.149Z,3.30
2022-12-28T15:14:43.963Z,4.80
2022-12-28T15:20:46.208Z,6.95
2022-12-28T15:26:48.342Z,5.88
2022-12-28T15:32:50.493Z,8.00
2022-12-28T15:38:55.436Z,6.25
2022-12-28T15:44:57.623Z,6.93
2022-12-28T15:51:00.046Z,9.32
2022-12-28T15:57:02.287Z,6.47
2022-12-28T16:03:04.576Z,10.23
2022-12-28T16:09:07.103Z,11.05
2022-12-28T16:15:09.541Z,9.50
2022-12-28T16:21:12.286Z,9.30
2022-12-28T16:27:14.660Z,12.00
2022-12-28T16:33:16.868Z,12.70
2022-12-28T16:39:19.099Z,11.30
2022-12-28T16:45:21.147Z,8.95
2022-12-28T16:51:23.447Z,11.50
2022-12-28T16:57:25.596Z,11.45
2022-12-28T17:03:27.895Z,12.75
2022-12-28T17:09:30.123Z,12.00
2022-12-28T17:15:32.176Z,11.13
2022-12-28T17:21:35.416Z,10.55
2022-12-28T17:27:37.509Z,10.00
2022-12-28T17:33:40.449Z,5.78
2022-12-28T17:39:42.519Z,7.82
2022-12-28T17:45:44.696Z,7.87
2022-12-28T17:51:46.976Z,8.40
2022-12-28T17:57:49.083Z,8.27
2022-12-28T18:03:51.484Z,7.25
2022-12-28T18:09:53.625Z,9.43
2022-12-28T18:15:56.127Z,9.02
2022-12-28T18:21:58.383Z,9.10
2022-12-28T18:28:00.403Z,10.50
2022-12-28T18:34:02.792Z,10.00
2022-12-28T18:40:05.396Z,10.77
2022-12-28T18:52:10.330Z,11.57
2022-12-28T18:58:12.615Z,12.45
2022-12-28T19:10:17.825Z,13.15
2022-12-28T19:16:28.563Z,10.90
2022-12-28T19:28:35.188Z,12.88
2022-12-28T19:34:37.360Z,13.15
2022-12-28T19:40:39.573Z,12.05
2022-12-28T19:46:42.047Z,13.90
2022-12-28T19:58:47.556Z,14.95
2022-12-28T20:04:49.775Z,13.60
2022-12-28T20:10:58.061Z,15.02
2022-12-28T20:17:00.489Z,15.63
2022-12-28T20:23:02.575Z,13.85
2022-12-28T20:29:05.515Z,15.13
2022-12-28T20:35:07.681Z,16.27
2022-12-28T20:41:32.078Z,15.18
2022-12-28T20:47:34.232Z,16.65
2022-12-28T20:53:36.340Z,16.77
2022-12-28T20:59:38.528Z,17.73
2022-12-28T21:05:40.527Z,15.15
2022-12-28T21:11:42.737Z,18.50
2022-12-28T21:17:44.778Z,16.50
2022-12-28T21:23:46.985Z,18.15
2022-12-28T21:29:49.165Z,27.20
2022-12-28T21:36:20.595Z,19.05
2022-12-28T21:42:22.614Z,18.75
2022-12-28T21:48:36.435Z,16.27
2022-12-28T21:54:38.759Z,15.63
2022-12-28T22:00:59.850Z,15.77
2022-12-28T22:07:03.032Z,16.30
2022-12-28T22:13:05.108Z,15.07
2022-12-28T22:19:07.308Z,14.27
2022-12-28T22:25:11.321Z,16.95
2022-12-28T22:31:13.585Z,17.02
2022-12-28T22:37:16.243Z,18.23
2022-12-28T22:43:18.410Z,18.25
2022-12-28T22:49:20.550Z,18.48
2022-12-28T22:55:22.618Z,18.33
2022-12-28T23:01:25.113Z,17.23
2022-12-28T23:07:27.431Z,18.33
2022-12-28T23:13:32.408Z,18.95
2022-12-28T23:19:53.794Z,18.30
2022-12-28T23:26:14.775Z,18.42
2022-12-28T23:32:16.777Z,17.77
2022-12-28T23:38:18.823Z,19.27
2022-12-28T23:44:24.030Z,17.58
2022-12-28T23:50:26.149Z,18.27
2022-12-28T23:56:28.407Z,17.50
